createdAt,value
2023-03-06T00:02:11.344Z,60.51
2023-03-06T00:04:37.734Z,60.21
2023-03-06T00:07:04.120Z,59.54
2023-03-06T00:09:30.511Z,59.21
2023-03-06T00:11:56.893Z,59.03
2023-03-06T00:14:23.349Z,60.01
2023-03-06T00:16:49.754Z,59.79
2023-03-06T00:19:16.120Z,59.93
2023-03-06T00:21:42.534Z,59.67
2023-03-06T00:24:08.951Z,59.89
2023-03-06T00:26:35.312Z,60.36
2023-03-06T00:29:01.679Z,60.74
2023-03-06T00:31:28.236Z,62.26
2023-03-06T00:33:54.699Z,61.85
2023-03-06T00:36:21.108Z,61.95
2023-03-06T00:38:47.494Z,62.32
2023-03-06T00:41:13.891Z,63.52
2023-03-06T00:43:40.275Z,64.01
2023-03-06T00:46:06.796Z,64.32
2023-03-06T00:48:33.187Z,64.40
2023-03-06T00:50:59.609Z,64.03
2023-03-06T00:53:25.988Z,64.43
2023-03-06T00:55:52.375Z,64.64
2023-03-06T00:58:18.767Z,65.06
2023-03-06T01:00:45.199Z,64.88
2023-03-06T01:03:11.696Z,65.59
2023-03-06T01:05:38.058Z,65.19
2023-03-06T01:08:04.435Z,65.43
2023-03-06T01:10:30.800Z,64.80
2023-03-06T01:12:57.207Z,65.21
2023-03-06T01:15:23.569Z,65.65
2023-03-06T01:17:49.957Z,65.07
2023-03-06T01:20:16.381Z,64.30
2023-03-06T01:22:42.773Z,64.75
2023-03-06T01:25:09.168Z,65.37
2023-03-06T01:27:35.538Z,66.08
2023-03-06T01:30:01.922Z,65.82
2023-03-06T01:32:28.400Z,65.16
2023-03-06T01:34:57.331Z,65.44
2023-03-06T01:37:23.746Z,65.48
2023-03-06T01:39:50.187Z,66.06
2023-03-06T01:42:16.578Z,65.25
2023-03-06T01:44:43.046Z,65.42
2023-03-06T01:47:09.429Z,65.87
2023-03-06T01:49:38.608Z,65.84
2023-03-06T01:52:05.016Z,65.80
2023-03-06T01:54:31.416Z,65.72
2023-03-06T01:56:57.802Z,65.54
2023-03-06T01:59:24.164Z,65.82
2023-03-06T02:01:50.629Z,65.37
2023-03-06T02:04:17.025Z,65.80
2023-03-06T02:06:43.472Z,66.64
2023-03-06T02:09:09.882Z,66.55
2023-03-06T02:11:36.264Z,67.53
2023-03-06T02:14:02.654Z,68.72
2023-03-06T02:16:29.210Z,68.65
2023-03-06T02:18:55.589Z,68.99
2023-03-06T02:21:23.003Z,68.76
2023-03-06T02:23:49.393Z,69.24
2023-03-06T02:26:15.791Z,69.14
2023-03-06T02:28:42.159Z,69.36
2023-03-06T02:31:08.588Z,69.47
2023-03-06T02:33:35.015Z,68.38
2023-03-06T02:36:01.466Z,68.26
2023-03-06T02:38:27.886Z,68.01
2023-03-06T02:40:54.393Z,67.81
2023-03-06T02:43:20.816Z,67.53
2023-03-06T02:45:47.255Z,68.33
2023-03-06T02:48:14.721Z,68.70
2023-03-06T02:50:41.088Z,68.74
2023-03-06T02:53:07.550Z,68.47
2023-03-06T02:55:33.944Z,69.23
2023-03-06T02:58:00.623Z,69.76
2023-03-06T03:00:26.992Z,70.24
2023-03-06T03:02:53.344Z,70.31
2023-03-06T03:05:19.704Z,69.55
2023-03-06T03:07:46.091Z,69.62
2023-03-06T03:10:12.471Z,69.83
2023-03-06T03:12:38.846Z,69.13
2023-03-06T03:15:05.205Z,68.17
2023-03-06T03:17:31.574Z,68.60
2023-03-06T03:19:57.936Z,68.63
2023-03-06T03:22:24.356Z,69.82
2023-03-06T03:24:50.832Z,68.78
2023-03-06T03:27:17.441Z,68.13
2023-03-06T03:29:43.883Z,68.39
2023-03-06T03:32:10.355Z,68.15
2023-03-06T03:34:36.733Z,68.43
2023-03-06T03:37:03.117Z,68.59
2023-03-06T03:39:29.579Z,68.74
2023-03-06T03:41:56.002Z,68.80
2023-03-06T03:44:22.386Z,68.28
2023-03-06T03:46:48.828Z,67.99
2023-03-06T03:49:15.262Z,67.88
2023-03-06T03:51:41.655Z,67.09
2023-03-06T03:54:08.027Z,67.15
2023-03-06T03:56:34.454Z,67.03
2023-03-06T03:59:00.840Z,67.45
2023-03-06T04:01:27.227Z,66.85
2023-03-06T04:03:53.611Z,66.47
2023-03-06T04:06:20.110Z,67.00
2023-03-06T04:08:46.479Z,66.57
2023-03-06T04:11:12.892Z,67.74
2023-03-06T04:13:39.283Z,68.57
2023-03-06T04:16:05.856Z,68.46
2023-03-06T04:18:32.259Z,68.79
2023-03-06T04:20:58.677Z,68.81
2023-03-06T04:23:25.076Z,68.50
2023-03-06T04:25:51.475Z,68.38
2023-03-06T04:28:17.845Z,67.81
2023-03-06T04:30:44.229Z,67.37
2023-03-06T04:33:10.606Z,67.37
2023-03-06T04:35:37.014Z,66.79
2023-03-06T04:38:03.413Z,68.06
2023-03-06T04:40:29.798Z,67.79
2023-03-06T04:42:56.239Z,67.98
2023-03-06T04:45:22.763Z,67.99
2023-03-06T04:47:49.144Z,67.81
2023-03-06T04:50:15.520Z,67.47
2023-03-06T04:52:41.930Z,67.02
2023-03-06T04:55:09.308Z,67.44
2023-03-06T04:57:35.686Z,67.41
2023-03-06T05:00:02.049Z,67.09
2023-03-06T05:02:28.443Z,67.28
2023-03-06T05:04:54.873Z,66.93
2023-03-06T05:07:21.244Z,66.93
2023-03-06T05:09:47.634Z,67.27
2023-03-06T05:12:14.089Z,67.54
2023-03-06T05:14:40.460Z,67.10
2023-03-06T05:17:06.934Z,67.47
2023-03-06T05:19:33.298Z,67.18
2023-03-06T05:21:59.790Z,67.26
2023-03-06T05:24:26.178Z,66.98
2023-03-06T05:26:52.542Z,66.82
2023-03-06T05:29:18.949Z,66.52
2023-03-06T05:31:45.374Z,66.54
2023-03-06T05:34:11.767Z,67.14
2023-03-06T05:36:38.192Z,67.00
2023-03-06T05:39:04.553Z,67.49
2023-03-06T05:41:31.085Z,67.79
2023-03-06T05:43:57.554Z,68.26
2023-03-06T05:46:23.937Z,68.39
2023-03-06T05:48:50.320Z,67.96
2023-03-06T05:51:16.742Z,67.67
2023-03-06T05:53:43.210Z,67.80
2023-03-06T05:56:09.590Z,67.14
2023-03-06T05:58:36.881Z,67.63
2023-03-06T06:01:03.259Z,68.62
2023-03-06T06:03:29.657Z,68.62
2023-03-06T06:05:56.061Z,69.18
2023-03-06T06:08:22.434Z,68.67
2023-03-06T06:10:50.453Z,68.43
2023-03-06T06:13:18.644Z,69.32
2023-03-06T06:15:45.074Z,69.52
2023-03-06T06:18:11.457Z,69.88
2023-03-06T06:20:38.888Z,70.13
2023-03-06T06:23:05.262Z,69.97
2023-03-06T06:25:31.646Z,69.49
2023-03-06T06:27:58.032Z,69.35
2023-03-06T06:30:24.394Z,69.22
2023-03-06T06:32:50.757Z,68.82
2023-03-06T06:35:17.138Z,69.16
2023-03-06T06:37:43.550Z,68.88
2023-03-06T06:40:09.928Z,68.97
2023-03-06T06:42:39.924Z,68.68
2023-03-06T06:45:06.617Z,68.69
2023-03-06T06:47:33.312Z,68.48
2023-03-06T06:49:59.990Z,68.68
2023-03-06T06:52:26.405Z,68.04
2023-03-06T06:54:52.825Z,67.50
2023-03-06T06:57:19.278Z,67.09
2023-03-06T06:59:45.667Z,66.34
2023-03-06T07:02:12.137Z,65.98
2023-03-06T07:04:40.967Z,65.82
2023-03-06T07:07:10.724Z,65.49
2023-03-06T07:09:37.204Z,64.85
2023-03-06T07:12:03.576Z,64.35
2023-03-06T07:14:29.991Z,64.58
2023-03-06T07:16:56.365Z,65.85
2023-03-06T07:19:22.772Z,64.99
2023-03-06T07:21:49.180Z,64.42
2023-03-06T07:24:15.561Z,65.14
2023-03-06T07:26:41.941Z,65.45
2023-03-06T07:29:08.313Z,65.23
2023-03-06T07:31:34.741Z,65.79
2023-03-06T07:34:03.151Z,65.85
2023-03-06T07:36:31.163Z,65.88
2023-03-06T07:38:57.558Z,65.83
2023-03-06T07:41:23.960Z,66.31
2023-03-06T07:43:50.408Z,66.14
2023-03-06T07:46:16.887Z,65.28
2023-03-06T07:48:43.278Z,65.74
2023-03-06T07:51:09.645Z,65.60
2023-03-06T07:53:36.014Z,65.24
2023-03-06T07:56:02.397Z,66.29
2023-03-06T07:58:28.758Z,66.27
2023-03-06T08:00:55.171Z,65.98
2023-03-06T08:03:22.973Z,66.60
2023-03-06T08:05:49.381Z,66.44
2023-03-06T08:08:15.786Z,66.12
2023-03-06T08:10:42.173Z,65.74
2023-03-06T08:13:08.558Z,65.98
2023-03-06T08:15:34.935Z,66.43
2023-03-06T08:18:01.305Z,66.34
2023-03-06T08:20:27.717Z,65.59
2023-03-06T08:22:54.098Z,66.09
2023-03-06T08:25:20.477Z,65.79
2023-03-06T08:27:46.860Z,65.58
2023-03-06T08:30:13.264Z,64.93
2023-03-06T08:32:39.695Z,65.03
2023-03-06T08:35:06.172Z,65.11
2023-03-06T08:37:32.559Z,65.32
2023-03-06T08:39:58.954Z,64.72
2023-03-06T08:42:25.338Z,64.22
2023-03-06T08:44:51.736Z,65.55
2023-03-06T08:47:18.155Z,65.51
2023-03-06T08:49:44.543Z,65.79
2023-03-06T08:52:10.907Z,64.68
2023-03-06T08:54:37.297Z,65.35
2023-03-06T08:57:03.674Z,65.34
2023-03-06T08:59:30.073Z,64.03
2023-03-06T09:01:56.455Z,62.33
2023-03-06T09:04:22.892Z,61.65
2023-03-06T09:06:49.274Z,60.77
2023-03-06T09:09:15.663Z,60.96
2023-03-06T09:11:42.038Z,60.56
2023-03-06T09:14:08.417Z,61.13
2023-03-06T09:16:34.827Z,61.38
2023-03-06T09:19:01.248Z,60.49
2023-03-06T09:21:27.655Z,61.77
2023-03-06T09:23:54.085Z,61.48
2023-03-06T09:26:20.456Z,61.20
2023-03-06T09:28:46.845Z,60.80
2023-03-06T09:31:13.499Z,60.86
2023-03-06T09:33:39.946Z,61.89
2023-03-06T09:36:06.395Z,62.36
2023-03-06T09:38:32.787Z,62.18
2023-03-06T09:40:59.165Z,61.71
2023-03-06T09:43:25.532Z,61.13
2023-03-06T09:45:53.707Z,61.53
2023-03-06T09:48:20.066Z,59.63
2023-03-06T09:50:46.443Z,59.70
2023-03-06T09:53:14.483Z,59.92
2023-03-06T09:55:40.866Z,59.63
2023-03-06T09:58:07.625Z,58.34
2023-03-06T10:00:34.033Z,57.68
2023-03-06T10:03:00.525Z,57.65
2023-03-06T10:05:26.937Z,57.54
2023-03-06T10:10:36.372Z,57.58
2023-03-06T10:13:02.750Z,56.74
2023-03-06T10:15:29.198Z,56.36
2023-03-06T10:17:55.630Z,55.51
2023-03-06T10:20:22.151Z,57.12
2023-03-06T10:23:00.604Z,56.58
2023-03-06T10:25:29.631Z,55.56
2023-03-06T10:27:56.052Z,54.61
2023-03-06T10:30:22.560Z,55.78
2023-03-06T10:32:49.565Z,55.63
2023-03-06T10:35:16.125Z,54.66
2023-03-06T10:37:42.491Z,53.60
2023-03-06T10:40:08.926Z,53.87
2023-03-06T10:42:35.360Z,53.34
2023-03-06T10:45:01.774Z,54.26
2023-03-06T10:47:28.252Z,53.60
2023-03-06T10:49:54.641Z,52.31
2023-03-06T10:52:21.017Z,53.78
2023-03-06T10:54:47.443Z,54.36
2023-03-06T10:57:13.822Z,53.68
2023-03-06T10:59:40.231Z,52.56
2023-03-06T11:02:08.037Z,52.98
2023-03-06T11:04:34.491Z,54.15
2023-03-06T11:07:00.909Z,53.32
2023-03-06T11:09:27.275Z,51.69
2023-03-06T11:11:53.643Z,49.38
2023-03-06T11:14:20.041Z,49.14
2023-03-06T11:16:46.449Z,51.77
2023-03-06T11:19:12.876Z,52.29
2023-03-06T11:21:39.271Z,51.49
2023-03-06T11:24:05.640Z,52.21
2023-03-06T11:26:32.547Z,53.32
2023-03-06T11:28:59.111Z,52.88
2023-03-06T11:31:25.573Z,52.46
2023-03-06T11:33:52.017Z,51.25
2023-03-06T11:36:18.396Z,54.09
2023-03-06T11:38:44.773Z,54.00
2023-03-06T11:41:11.374Z,51.65
2023-03-06T11:43:37.802Z,48.59
2023-03-06T11:46:04.171Z,52.70
2023-03-06T11:48:30.609Z,51.07
2023-03-06T11:50:56.974Z,51.53
2023-03-06T11:53:23.333Z,47.75
2023-03-06T11:55:52.553Z,48.02
2023-03-06T11:58:18.921Z,48.81
2023-03-06T12:00:45.334Z,48.43
2023-03-06T12:03:11.733Z,47.27
2023-03-06T12:05:38.185Z,48.17
2023-03-06T12:08:04.649Z,44.72
2023-03-06T12:10:31.127Z,44.16
2023-03-06T12:12:57.503Z,43.73
2023-03-06T12:15:23.903Z,43.59
2023-03-06T12:17:50.306Z,44.61
2023-03-06T12:20:16.665Z,43.14
2023-03-06T12:22:44.359Z,40.52
2023-03-06T12:25:12.778Z,41.07
2023-03-06T12:27:39.172Z,45.49
2023-03-06T12:30:05.574Z,45.07
2023-03-06T12:32:31.997Z,43.86
2023-03-06T12:34:58.405Z,43.75
2023-03-06T12:37:24.797Z,43.82
2023-03-06T12:39:51.171Z,43.73
2023-03-06T12:42:23.108Z,43.03
2023-03-06T12:44:50.045Z,42.48
2023-03-06T12:47:16.442Z,42.81
2023-03-06T12:49:42.874Z,41.57
2023-03-06T12:52:09.814Z,44.02
2023-03-06T12:54:36.266Z,43.24
2023-03-06T12:57:02.734Z,42.71
2023-03-06T12:59:29.154Z,41.36
2023-03-06T13:01:55.575Z,43.80
2023-03-06T13:04:22.039Z,43.22
2023-03-06T13:06:50.970Z,43.59
2023-03-06T13:09:17.678Z,41.52
2023-03-06T13:11:44.097Z,41.28
2023-03-06T13:14:10.474Z,40.07
2023-03-06T13:16:36.928Z,41.30
2023-03-06T13:19:03.362Z,43.82
2023-03-06T13:21:29.740Z,42.18
2023-03-06T13:23:56.102Z,39.96
2023-03-06T13:26:22.501Z,42.86
2023-03-06T13:28:48.898Z,42.01
2023-03-06T13:31:26.352Z,43.17
2023-03-06T13:33:53.760Z,42.00
2023-03-06T13:36:20.272Z,42.78
2023-03-06T13:38:46.642Z,42.66
2023-03-06T13:41:13.007Z,43.32
2023-03-06T13:43:39.387Z,42.79
2023-03-06T13:46:05.807Z,43.83
2023-03-06T13:48:47.656Z,42.83
2023-03-06T13:51:14.130Z,42.22
2023-03-06T13:53:40.569Z,41.09
2023-03-06T13:56:07.100Z,41.69
2023-03-06T13:58:33.476Z,40.72
2023-03-06T14:00:59.887Z,37.63
2023-03-06T14:03:26.318Z,37.97
2023-03-06T14:05:52.714Z,38.64
2023-03-06T14:08:19.113Z,39.48
2023-03-06T14:10:45.492Z,38.23
2023-03-06T14:13:13.314Z,38.82
2023-03-06T14:26:58.708Z,38.14
2023-03-06T14:29:27.580Z,36.70
2023-03-06T14:32:01.312Z,34.32
2023-03-06T14:34:27.757Z,35.78
2023-03-06T14:36:54.121Z,34.02
2023-03-06T14:39:20.521Z,33.69
2023-03-06T14:41:46.911Z,33.18
2023-03-06T14:44:13.274Z,32.32
2023-03-06T14:46:39.658Z,33.07
2023-03-06T14:49:06.044Z,33.64
2023-03-06T14:51:32.433Z,33.94
2023-03-06T14:53:58.907Z,33.46
2023-03-06T14:56:25.290Z,34.28
2023-03-06T14:58:51.651Z,33.47
2023-03-06T15:01:18.147Z,33.43
2023-03-06T15:03:44.658Z,32.58
2023-03-06T15:06:11.054Z,34.02
2023-03-06T15:08:37.434Z,33.13
2023-03-06T15:11:03.867Z,33.30
2023-03-06T15:13:30.254Z,34.77
2023-03-06T15:15:56.656Z,36.02
2023-03-06T15:18:23.109Z,33.79
2023-03-06T15:20:49.474Z,34.35
2023-03-06T15:23:15.864Z,34.42
2023-03-06T15:25:42.323Z,36.07
2023-03-06T15:28:08.709Z,37.90
2023-03-06T15:30:35.088Z,37.82
2023-03-06T15:33:01.479Z,38.21
2023-03-06T15:35:27.885Z,35.68
2023-03-06T15:37:54.350Z,35.23
2023-03-06T15:40:20.786Z,36.43
2023-03-06T15:42:47.201Z,35.12
2023-03-06T15:45:13.579Z,33.46
2023-03-06T15:47:39.964Z,32.37
2023-03-06T15:50:06.349Z,31.36
2023-03-06T15:52:32.732Z,30.26
2023-03-06T15:54:59.148Z,30.68
2023-03-06T15:57:25.522Z,31.55
2023-03-06T15:59:51.908Z,31.30
2023-03-06T16:02:18.300Z,30.59
2023-03-06T16:04:44.692Z,31.04
2023-03-06T16:07:11.065Z,29.48
2023-03-06T16:09:37.466Z,29.06
2023-03-06T16:12:03.862Z,27.70
2023-03-06T16:14:30.260Z,29.22
2023-03-06T16:16:56.776Z,26.86
2023-03-06T16:19:26.264Z,28.72
2023-03-06T16:21:53.480Z,28.01
2023-03-06T16:24:19.983Z,28.68
2023-03-06T16:26:46.354Z,28.88
2023-03-06T16:29:12.747Z,29.64
2023-03-06T16:31:39.099Z,30.05
2023-03-06T16:34:06.944Z,30.74
2023-03-06T16:36:33.353Z,30.40
2023-03-06T16:38:59.732Z,31.43
2023-03-06T16:41:26.197Z,30.54
2023-03-06T16:43:52.583Z,31.55
2023-03-06T16:46:19.022Z,32.86
2023-03-06T16:48:45.453Z,32.82
2023-03-06T16:51:11.834Z,32.86
2023-03-06T16:53:38.223Z,32.34
2023-03-06T16:56:04.682Z,31.76
2023-03-06T16:58:31.106Z,32.17
2023-03-06T17:00:57.502Z,31.92
2023-03-06T17:03:23.916Z,31.77
2023-03-06T17:05:50.298Z,32.04
2023-03-06T17:08:16.677Z,32.78
2023-03-06T17:10:43.084Z,32.89
2023-03-06T17:13:09.461Z,34.44
2023-03-06T17:15:35.851Z,35.13
2023-03-06T17:18:02.307Z,35.48
2023-03-06T17:20:28.734Z,35.74
2023-03-06T17:22:55.171Z,36.35
2023-03-06T17:25:21.606Z,36.79
2023-03-06T17:27:47.986Z,37.15
2023-03-06T17:30:14.378Z,37.51
2023-03-06T17:32:40.899Z,36.77
2023-03-06T17:35:07.347Z,37.08
2023-03-06T17:37:33.879Z,37.05
2023-03-06T17:40:00.379Z,36.81
2023-03-06T17:42:26.763Z,36.32
2023-03-06T17:44:53.171Z,52.29
2023-03-06T17:47:20.631Z,36.36
2023-03-06T17:49:47.047Z,36.89
2023-03-06T17:52:13.417Z,38.14
2023-03-06T17:54:39.837Z,38.49
2023-03-06T17:57:06.206Z,39.01
2023-03-06T17:59:32.574Z,40.02
2023-03-06T18:01:59.026Z,39.90
2023-03-06T18:04:25.457Z,39.68
2023-03-06T18:06:51.831Z,40.07
2023-03-06T18:09:18.261Z,40.27
2023-03-06T18:11:44.683Z,40.41
2023-03-06T18:14:11.080Z,40.13
2023-03-06T18:16:37.518Z,40.94
2023-03-06T18:19:03.924Z,40.86
2023-03-06T18:21:30.306Z,40.70
2023-03-06T18:23:56.716Z,40.31
2023-03-06T18:26:23.181Z,41.29
2023-03-06T18:28:49.552Z,40.92
2023-03-06T18:31:15.964Z,39.51
2023-03-06T18:33:42.385Z,40.67
2023-03-06T18:36:08.756Z,40.74
2023-03-06T18:38:35.134Z,39.81
2023-03-06T18:41:01.533Z,39.45
2023-03-06T18:43:28.077Z,39.79
2023-03-06T18:45:54.484Z,40.41
2023-03-06T18:48:20.886Z,40.23
2023-03-06T18:50:47.246Z,40.90
2023-03-06T18:53:13.634Z,41.65
2023-03-06T18:55:40.116Z,41.61
2023-03-06T18:58:06.509Z,41.37
2023-03-06T19:00:32.886Z,41.84
2023-03-06T19:02:59.374Z,40.55
2023-03-06T19:05:25.865Z,41.14
2023-03-06T19:07:52.261Z,41.43
2023-03-06T19:10:18.669Z,41.96
2023-03-06T19:12:45.127Z,41.39
2023-03-06T19:15:11.532Z,40.41
2023-03-06T19:17:37.970Z,41.06
2023-03-06T19:20:04.359Z,40.62
2023-03-06T19:22:31.806Z,39.79
2023-03-06T19:24:58.235Z,40.14
2023-03-06T19:27:24.611Z,41.07
2023-03-06T19:29:51.036Z,41.15
2023-03-06T19:32:17.618Z,42.06
2023-03-06T19:34:44.082Z,42.84
2023-03-06T19:37:10.468Z,43.56
2023-03-06T19:39:36.856Z,43.61
2023-03-06T19:42:03.289Z,44.47
2023-03-06T19:44:29.707Z,44.74
2023-03-06T19:46:56.205Z,44.86
2023-03-06T19:49:22.586Z,45.10
2023-03-06T19:51:49.009Z,45.56
2023-03-06T19:54:15.718Z,45.67
2023-03-06T19:56:43.124Z,45.59
2023-03-06T19:59:09.527Z,45.23
2023-03-06T20:01:38.074Z,45.47
2023-03-06T20:04:04.528Z,44.95
2023-03-06T20:06:30.900Z,44.94
2023-03-06T20:08:57.279Z,44.46
2023-03-06T20:11:25.540Z,44.38
2023-03-06T20:13:51.910Z,44.38
2023-03-06T20:16:18.284Z,44.62
2023-03-06T20:18:47.530Z,44.82
2023-03-06T20:21:13.983Z,44.58
2023-03-06T20:23:40.396Z,44.90
2023-03-06T20:26:06.874Z,45.22
2023-03-06T20:28:33.337Z,45.38
2023-03-06T20:30:59.766Z,45.82
2023-03-06T20:33:26.266Z,45.78
2023-03-06T20:35:52.874Z,46.09
2023-03-06T20:38:19.268Z,45.97
2023-03-06T20:40:45.684Z,46.14
2023-03-06T20:43:12.213Z,46.03
2023-03-06T20:45:38.630Z,46.13
2023-03-06T20:48:05.063Z,45.47
2023-03-06T20:50:33.373Z,45.58
2023-03-06T20:52:59.863Z,45.08
2023-03-06T20:55:26.346Z,45.08
2023-03-06T20:57:52.780Z,45.18
2023-03-06T21:00:19.162Z,45.56
2023-03-06T21:02:45.634Z,45.30
2023-03-06T21:05:12.075Z,45.19
2023-03-06T21:07:38.503Z,45.30
2023-03-06T21:10:04.889Z,45.24
2023-03-06T21:12:31.301Z,45.40
2023-03-06T21:14:57.715Z,45.35
2023-03-06T21:17:24.102Z,45.10
2023-03-06T21:19:50.508Z,45.50
2023-03-06T21:22:16.922Z,45.13
2023-03-06T21:24:43.354Z,44.97
2023-03-06T21:27:09.775Z,45.04
2023-03-06T21:29:36.159Z,45.20
2023-03-06T21:32:02.607Z,44.89
2023-03-06T21:34:29.032Z,45.24
2023-03-06T21:36:55.479Z,45.29
2023-03-06T21:39:21.855Z,45.72
2023-03-06T21:41:48.277Z,45.45
2023-03-06T21:44:14.674Z,45.52
2023-03-06T21:46:41.077Z,45.53
2023-03-06T21:49:07.475Z,45.81
2023-03-06T21:51:33.958Z,46.08
2023-03-06T21:54:00.354Z,45.97
2023-03-06T21:56:29.040Z,46.44
2023-03-06T21:58:55.457Z,47.13
2023-03-06T22:01:21.933Z,47.63
2023-03-06T22:03:48.418Z,48.36
2023-03-06T22:06:14.862Z,49.12
2023-03-06T22:08:41.227Z,49.31
2023-03-06T22:11:07.620Z,49.19
2023-03-06T22:13:34.021Z,49.54
2023-03-06T22:16:00.381Z,49.83
2023-03-06T22:18:26.758Z,48.92
2023-03-06T22:20:53.164Z,49.00
2023-03-06T22:23:19.567Z,49.57
2023-03-06T22:25:45.960Z,50.40
2023-03-06T22:28:12.333Z,50.41
2023-03-06T22:30:38.736Z,50.17
2023-03-06T22:33:05.213Z,50.17
2023-03-06T22:35:31.596Z,49.99
2023-03-06T22:37:58.074Z,49.54
2023-03-06T22:40:24.466Z,49.63
2023-03-06T22:42:50.861Z,50.15
2023-03-06T22:45:17.253Z,50.40
2023-03-06T22:47:43.676Z,49.54
2023-03-06T22:50:10.054Z,49.68
2023-03-06T22:52:36.454Z,49.46
2023-03-06T22:55:02.851Z,49.59
2023-03-06T22:57:29.238Z,49.14
2023-03-06T22:59:55.610Z,48.33
2023-03-06T23:02:22.028Z,48.26
2023-03-06T23:04:48.421Z,47.53
2023-03-06T23:07:14.797Z,47.95
2023-03-06T23:09:41.182Z,48.24
2023-03-06T23:12:07.563Z,48.95
2023-03-06T23:14:33.984Z,48.67
2023-03-06T23:17:00.412Z,49.13
2023-03-06T23:19:26.807Z,48.30
2023-03-06T23:21:53.199Z,48.66
2023-03-06T23:24:19.657Z,48.58
2023-03-06T23:26:46.042Z,48.82
2023-03-06T23:29:12.426Z,49.01
2023-03-06T23:31:38.827Z,49.40
2023-03-06T23:34:05.204Z,49.44
2023-03-06T23:36:31.618Z,49.12
2023-03-06T23:38:57.987Z,48.90
2023-03-06T23:41:24.376Z,50.56
2023-03-06T23:43:51.017Z,49.70
2023-03-06T23:46:18.057Z,49.99
2023-03-06T23:48:44.768Z,50.04
2023-03-06T23:51:11.149Z,50.34
2023-03-06T23:53:37.539Z,50.42
2023-03-06T23:56:05.984Z,49.99
2023-03-06T23:58:32.389Z,51.00
